sensor_id;sensor_type;location;lat;lon;timestamp;P1;durP1;ratioP1;P2;durP2;ratioP2
54515;SDS011;40422;45.892;4.738;2022-12-07T04:02:12;13.23;;;6.47;;
54515;SDS011;40422;45.892;4.738;2022-12-07T04:04:38;14.13;;;7.03;;
54515;SDS011;40422;45.892;4.738;2022-12-07T04:07:04;14.45;;;6.40;;
54515;SDS011;40422;45.892;4.738;2022-12-07T04:09:30;14.15;;;7.25;;
54515;SDS011;40422;45.892;4.738;2022-12-07T04:11:56;13.02;;;5.70;;
54515;SDS011;40422;45.892;4.738;2022-12-07T04:14:21;14.35;;;6.88;;
54515;SDS011;40422;45.892;4.738;2022-12-07T04:16:50;13.88;;;6.47;;
54515;SDS011;40422;45.892;4.738;2022-12-07T04:19:18;15.05;;;6.45;;
54515;SDS011;40422;45.892;4.738;2022-12-07T04:24:34;14.55;;;6.55;;
54515;SDS011;40422;45.892;4.738;2022-12-07T04:26:59;15.30;;;7.65;;
54515;SDS011;40422;45.892;4.738;2022-12-07T04:29:25;15.32;;;7.45;;
54515;SDS011;40422;45.892;4.738;2022-12-07T04:31:51;14.68;;;7.57;;
54515;SDS011;40422;45.892;4.738;2022-12-07T04:34:17;15.38;;;7.50;;
54515;SDS011;40422;45.892;4.738;2022-12-07T04:36:44;15.45;;;7.28;;
54515;SDS011;40422;45.892;4.738;2022-12-07T04:39:21;13.77;;;6.57;;
54515;SDS011;40422;45.892;4.738;2022-12-07T04:41:49;12.90;;;6.80;;
54515;SDS011;40422;45.892;4.738;2022-12-07T04:44:14;13.75;;;6.93;;
54515;SDS011;40422;45.892;4.738;2022-12-07T04:46:41;14.80;;;7.63;;
54515;SDS011;40422;45.892;4.738;2022-12-07T04:49:07;15.02;;;8.00;;
54515;SDS011;40422;45.892;4.738;2022-12-07T04:51:33;15.43;;;7.10;;
54515;SDS011;40422;45.892;4.738;2022-12-07T04:53:59;11.38;;;5.63;;
54515;SDS011;40422;45.892;4.738;2022-12-07T04:56:25;13.60;;;7.10;;
54515;SDS011;40422;45.892;4.738;2022-12-07T04:58:51;13.80;;;6.43;;
54515;SDS011;40422;45.892;4.738;2022-12-07T05:01:18;13.88;;;6.63;;
54515;SDS011;40422;45.892;4.738;2022-12-07T05:03:44;13.05;;;6.72;;
54515;SDS011;40422;45.892;4.738;2022-12-07T05:06:10;13.32;;;6.32;;
54515;SDS011;40422;45.892;4.738;2022-12-07T05:08:36;14.25;;;6.32;;
54515;SDS011;40422;45.892;4.738;2022-12-07T05:11:02;12.75;;;6.40;;
54515;SDS011;40422;45.892;4.738;2022-12-07T05:13:30;14.07;;;6.53;;
54515;SDS011;40422;45.892;4.738;2022-12-07T05:15:57;13.85;;;6.13;;
54515;SDS011;40422;45.892;4.738;2022-12-07T05:18:22;14.45;;;6.38;;
54515;SDS011;40422;45.892;4.738;2022-12-07T05:20:48;13.75;;;6.90;;
54515;SDS011;40422;45.892;4.738;2022-12-07T05:23:14;13.77;;;6.88;;
54515;SDS011;40422;45.892;4.738;2022-12-07T05:25:40;14.48;;;6.72;;
54515;SDS011;40422;45.892;4.738;2022-12-07T05:28:05;16.25;;;6.95;;
54515;SDS011;40422;45.892;4.738;2022-12-07T05:30:31;14.07;;;6.93;;
54515;SDS011;40422;45.892;4.738;2022-12-07T05:32:57;13.77;;;6.82;;
54515;SDS011;40422;45.892;4.738;2022-12-07T05:35:23;13.40;;;6.47;;
54515;SDS011;40422;45.892;4.738;2022-12-07T05:37:48;13.43;;;6.35;;
54515;SDS011;40422;45.892;4.738;2022-12-07T05:40:14;12.20;;;5.90;;
54515;SDS011;40422;45.892;4.738;2022-12-07T05:42:41;15.23;;;6.15;;
54515;SDS011;40422;45.892;4.738;2022-12-07T05:45:07;13.90;;;6.60;;
54515;SDS011;40422;45.892;4.738;2022-12-07T05:47:33;13.15;;;6.35;;
54515;SDS011;40422;45.892;4.738;2022-12-07T05:49:59;13.38;;;6.43;;
54515;SDS011;40422;45.892;4.738;2022-12-07T05:52:25;11.25;;;5.03;;
54515;SDS011;40422;45.892;4.738;2022-12-07T05:54:51;12.32;;;5.50;;
54515;SDS011;40422;45.892;4.738;2022-12-07T05:57:17;12.45;;;6.03;;
54515;SDS011;40422;45.892;4.738;2022-12-07T05:59:43;13.55;;;5.90;;
54515;SDS011;40422;45.892;4.738;2022-12-07T06:02:10;10.98;;;5.35;;
54515;SDS011;40422;45.892;4.738;2022-12-07T06:04:38;10.30;;;4.68;;
54515;SDS011;40422;45.892;4.738;2022-12-07T06:07:05;12.40;;;5.93;;
54515;SDS011;40422;45.892;4.738;2022-12-07T06:09:31;10.48;;;4.82;;
54515;SDS011;40422;45.892;4.738;2022-12-07T06:11:58;10.88;;;4.93;;
54515;SDS011;40422;45.892;4.738;2022-12-07T06:14:42;11.00;;;5.05;;
54515;SDS011;40422;45.892;4.738;2022-12-07T06:17:08;9.95;;;4.35;;
54515;SDS011;40422;45.892;4.738;2022-12-07T06:19:35;12.88;;;5.93;;
54515;SDS011;40422;45.892;4.738;2022-12-07T06:22:01;9.63;;;4.43;;
54515;SDS011;40422;45.892;4.738;2022-12-07T06:24:27;11.90;;;5.03;;
54515;SDS011;40422;45.892;4.738;2022-12-07T06:26:53;15.25;;;7.00;;
54515;SDS011;40422;45.892;4.738;2022-12-07T06:29:20;13.73;;;6.22;;
54515;SDS011;40422;45.892;4.738;2022-12-07T06:31:47;11.38;;;5.22;;
54515;SDS011;40422;45.892;4.738;2022-12-07T06:34:14;12.27;;;5.70;;
54515;SDS011;40422;45.892;4.738;2022-12-07T06:36:44;11.77;;;5.35;;
54515;SDS011;40422;45.892;4.738;2022-12-07T06:39:10;10.07;;;4.85;;
54515;SDS011;40422;45.892;4.738;2022-12-07T06:41:37;13.45;;;5.32;;
54515;SDS011;40422;45.892;4.738;2022-12-07T06:44:04;13.07;;;5.88;;
54515;SDS011;40422;45.892;4.738;2022-12-07T06:46:31;13.43;;;6.13;;
54515;SDS011;40422;45.892;4.738;2022-12-07T06:48:57;14.32;;;6.20;;
54515;SDS011;40422;45.892;4.738;2022-12-07T06:51:22;16.25;;;7.28;;
54515;SDS011;40422;45.892;4.738;2022-12-07T06:53:48;14.50;;;7.30;;
54515;SDS011;40422;45.892;4.738;2022-12-07T06:56:14;13.43;;;6.72;;
54515;SDS011;40422;45.892;4.738;2022-12-07T06:58:40;15.75;;;7.53;;
54515;SDS011;40422;45.892;4.738;2022-12-07T07:01:12;14.95;;;6.60;;
54515;SDS011;40422;45.892;4.738;2022-12-07T07:03:39;14.88;;;7.22;;
54515;SDS011;40422;45.892;4.738;2022-12-07T07:06:06;16.33;;;7.60;;
54515;SDS011;40422;45.892;4.738;2022-12-07T07:08:35;13.88;;;6.35;;
54515;SDS011;40422;45.892;4.738;2022-12-07T07:11:02;13.85;;;6.55;;
54515;SDS011;40422;45.892;4.738;2022-12-07T07:13:28;14.20;;;6.78;;
54515;SDS011;40422;45.892;4.738;2022-12-07T07:15:54;17.02;;;7.63;;
54515;SDS011;40422;45.892;4.738;2022-12-07T07:18:20;18.10;;;8.27;;
54515;SDS011;40422;45.892;4.738;2022-12-07T07:20:45;16.05;;;7.60;;
54515;SDS011;40422;45.892;4.738;2022-12-07T07:23:11;19.08;;;8.43;;
54515;SDS011;40422;45.892;4.738;2022-12-07T07:25:37;15.77;;;7.63;;
54515;SDS011;40422;45.892;4.738;2022-12-07T07:28:03;16.42;;;7.57;;
54515;SDS011;40422;45.892;4.738;2022-12-07T07:30:28;15.80;;;7.30;;
54515;SDS011;40422;45.892;4.738;2022-12-07T07:32:58;16.35;;;8.00;;
54515;SDS011;40422;45.892;4.738;2022-12-07T07:35:24;17.30;;;6.97;;
54515;SDS011;40422;45.892;4.738;2022-12-07T07:37:51;17.70;;;8.43;;
54515;SDS011;40422;45.892;4.738;2022-12-07T07:40:16;14.93;;;6.72;;
54515;SDS011;40422;45.892;4.738;2022-12-07T07:42:42;16.00;;;7.60;;
54515;SDS011;40422;45.892;4.738;2022-12-07T07:45:08;16.38;;;7.35;;
54515;SDS011;40422;45.892;4.738;2022-12-07T07:47:34;17.35;;;7.45;;
54515;SDS011;40422;45.892;4.738;2022-12-07T07:50:00;15.77;;;7.32;;
54515;SDS011;40422;45.892;4.738;2022-12-07T07:52:25;13.85;;;6.95;;
54515;SDS011;40422;45.892;4.738;2022-12-07T07:54:51;17.17;;;8.35;;
54515;SDS011;40422;45.892;4.738;2022-12-07T07:57:17;16.95;;;7.30;;
54515;SDS011;40422;45.892;4.738;2022-12-07T07:59:43;16.13;;;7.90;;
54515;SDS011;40422;45.892;4.738;2022-12-07T08:02:15;16.23;;;7.03;;
54515;SDS011;40422;45.892;4.738;2022-12-07T08:04:42;14.23;;;6.90;;
54515;SDS011;40422;45.892;4.738;2022-12-07T08:07:08;16.15;;;7.30;;
54515;SDS011;40422;45.892;4.738;2022-12-07T08:09:34;15.65;;;7.68;;
54515;SDS011;40422;45.892;4.738;2022-12-07T08:12:00;14.73;;;6.53;;
54515;SDS011;40422;45.892;4.738;2022-12-07T08:14:25;14.38;;;6.13;;
54515;SDS011;40422;45.892;4.738;2022-12-07T08:16:52;11.52;;;5.40;;
54515;SDS011;40422;45.892;4.738;2022-12-07T08:19:18;14.73;;;6.50;;
54515;SDS011;40422;45.892;4.738;2022-12-07T08:21:44;12.63;;;5.95;;
54515;SDS011;40422;45.892;4.738;2022-12-07T08:24:09;14.13;;;6.00;;
54515;SDS011;40422;45.892;4.738;2022-12-07T08:26:35;16.83;;;6.57;;
54515;SDS011;40422;45.892;4.738;2022-12-07T08:29:01;14.52;;;5.90;;
54515;SDS011;40422;45.892;4.738;2022-12-07T08:31:26;14.07;;;6.63;;
54515;SDS011;40422;45.892;4.738;2022-12-07T08:33:53;14.05;;;6.20;;
54515;SDS011;40422;45.892;4.738;2022-12-07T08:36:19;15.48;;;6.95;;
54515;SDS011;40422;45.892;4.738;2022-12-07T08:38:46;13.40;;;5.72;;
54515;SDS011;40422;45.892;4.738;2022-12-07T08:41:12;13.38;;;6.13;;
54515;SDS011;40422;45.892;4.738;2022-12-07T08:43:37;14.23;;;6.75;;
54515;SDS011;40422;45.892;4.738;2022-12-07T08:51:19;14.57;;;6.65;;
54515;SDS011;40422;45.892;4.738;2022-12-07T08:53:46;15.07;;;6.50;;
54515;SDS011;40422;45.892;4.738;2022-12-07T08:56:12;13.38;;;6.07;;
54515;SDS011;40422;45.892;4.738;2022-12-07T08:58:38;13.85;;;6.03;;
54515;SDS011;40422;45.892;4.738;2022-12-07T09:01:04;13.80;;;6.15;;
54515;SDS011;40422;45.892;4.738;2022-12-07T09:03:30;15.95;;;6.85;;
54515;SDS011;40422;45.892;4.738;2022-12-07T09:05:56;16.02;;;7.18;;
54515;SDS011;40422;45.892;4.738;2022-12-07T09:08:23;14.82;;;6.78;;
54515;SDS011;40422;45.892;4.738;2022-12-07T09:10:54;14.48;;;7.15;;
54515;SDS011;40422;45.892;4.738;2022-12-07T09:13:20;12.32;;;5.55;;
54515;SDS011;40422;45.892;4.738;2022-12-07T09:15:46;12.63;;;5.60;;
54515;SDS011;40422;45.892;4.738;2022-12-07T09:18:11;15.52;;;7.00;;
54515;SDS011;40422;45.892;4.738;2022-12-07T09:20:37;14.85;;;6.85;;
54515;SDS011;40422;45.892;4.738;2022-12-07T09:23:04;13.45;;;6.38;;
54515;SDS011;40422;45.892;4.738;2022-12-07T09:25:31;16.85;;;7.20;;
54515;SDS011;40422;45.892;4.738;2022-12-07T09:27:57;17.08;;;6.82;;
54515;SDS011;40422;45.892;4.738;2022-12-07T09:30:24;16.13;;;6.68;;
54515;SDS011;40422;45.892;4.738;2022-12-07T09:32:51;16.45;;;7.63;;
54515;SDS011;40422;45.892;4.738;2022-12-07T09:35:19;15.60;;;7.05;;
54515;SDS011;40422;45.892;4.738;2022-12-07T09:37:44;16.83;;;7.40;;
54515;SDS011;40422;45.892;4.738;2022-12-07T09:40:11;14.15;;;7.18;;
54515;SDS011;40422;45.892;4.738;2022-12-07T09:42:38;18.15;;;7.85;;
54515;SDS011;40422;45.892;4.738;2022-12-07T09:45:12;16.90;;;6.90;;
54515;SDS011;40422;45.892;4.738;2022-12-07T09:47:47;18.50;;;8.32;;
54515;SDS011;40422;45.892;4.738;2022-12-07T09:50:14;17.27;;;7.78;;
54515;SDS011;40422;45.892;4.738;2022-12-07T09:52:44;16.67;;;7.40;;
54515;SDS011;40422;45.892;4.738;2022-12-07T09:55:13;17.92;;;7.50;;
54515;SDS011;40422;45.892;4.738;2022-12-07T09:57:41;15.75;;;7.32;;
54515;SDS011;40422;45.892;4.738;2022-12-07T10:00:21;19.55;;;7.97;;
54515;SDS011;40422;45.892;4.738;2022-12-07T10:02:57;18.38;;;7.70;;
54515;SDS011;40422;45.892;4.738;2022-12-07T10:05:32;15.80;;;7.25;;
54515;SDS011;40422;45.892;4.738;2022-12-07T10:08:02;15.90;;;7.18;;
54515;SDS011;40422;45.892;4.738;2022-12-07T10:10:33;20.00;;;9.55;;
54515;SDS011;40422;45.892;4.738;2022-12-07T10:13:04;18.60;;;8.55;;
54515;SDS011;40422;45.892;4.738;2022-12-07T10:23:35;14.70;;;7.07;;
54515;SDS011;40422;45.892;4.738;2022-12-07T10:29:12;18.15;;;8.70;;
54515;SDS011;40422;45.892;4.738;2022-12-07T10:31:55;22.35;;;9.10;;
54515;SDS011;40422;45.892;4.738;2022-12-07T10:39:43;15.40;;;7.20;;
54515;SDS011;40422;45.892;4.738;2022-12-07T10:42:26;19.38;;;9.13;;
54515;SDS011;40422;45.892;4.738;2022-12-07T10:53:36;19.92;;;8.60;;
54515;SDS011;40422;45.892;4.738;2022-12-07T11:06:33;16.33;;;7.90;;
54515;SDS011;40422;45.892;4.738;2022-12-07T11:12:09;21.70;;;9.82;;
54515;SDS011;40422;45.892;4.738;2022-12-07T11:17:45;22.48;;;8.73;;
54515;SDS011;40422;45.892;4.738;2022-12-07T11:25:41;19.25;;;9.30;;
54515;SDS011;40422;45.892;4.738;2022-12-07T11:30:56;18.05;;;9.10;;
54515;SDS011;40422;45.892;4.738;2022-12-07T11:36:06;18.88;;;8.55;;
54515;SDS011;40422;45.892;4.738;2022-12-07T11:41:06;21.55;;;8.95;;
54515;SDS011;40422;45.892;4.738;2022-12-07T11:43:41;19.90;;;8.95;;
54515;SDS011;40422;45.892;4.738;2022-12-07T11:46:29;19.73;;;8.18;;
54515;SDS011;40422;45.892;4.738;2022-12-07T11:49:10;16.40;;;7.03;;
54515;SDS011;40422;45.892;4.738;2022-12-07T11:51:38;15.57;;;7.47;;
54515;SDS011;40422;45.892;4.738;2022-12-07T11:54:11;18.30;;;7.63;;
54515;SDS011;40422;45.892;4.738;2022-12-07T11:56:45;16.75;;;7.53;;
54515;SDS011;40422;45.892;4.738;2022-12-07T11:59:15;21.90;;;9.13;;
54515;SDS011;40422;45.892;4.738;2022-12-07T12:01:52;15.15;;;7.78;;
54515;SDS011;40422;45.892;4.738;2022-12-07T12:06:57;16.45;;;7.03;;
54515;SDS011;40422;45.892;4.738;2022-12-07T12:09:28;18.10;;;8.85;;
54515;SDS011;40422;45.892;4.738;2022-12-07T12:14:29;19.77;;;8.52;;
54515;SDS011;40422;45.892;4.738;2022-12-07T12:17:22;16.42;;;7.90;;
54515;SDS011;40422;45.892;4.738;2022-12-07T12:20:18;14.25;;;6.57;;
54515;SDS011;40422;45.892;4.738;2022-12-07T12:22:52;16.05;;;6.82;;
54515;SDS011;40422;45.892;4.738;2022-12-07T12:28:10;14.75;;;6.30;;
54515;SDS011;40422;45.892;4.738;2022-12-07T12:31:08;17.92;;;7.32;;
54515;SDS011;40422;45.892;4.738;2022-12-07T12:33:43;16.42;;;6.72;;
54515;SDS011;40422;45.892;4.738;2022-12-07T12:46:52;13.55;;;6.20;;
54515;SDS011;40422;45.892;4.738;2022-12-07T12:51:47;16.45;;;6.53;;
54515;SDS011;40422;45.892;4.738;2022-12-07T12:56:48;15.38;;;7.10;;
54515;SDS011;40422;45.892;4.738;2022-12-07T12:59:28;14.73;;;5.90;;
54515;SDS011;40422;45.892;4.738;2022-12-07T13:02:05;16.70;;;7.72;;
54515;SDS011;40422;45.892;4.738;2022-12-07T13:07:13;15.45;;;6.93;;
54515;SDS011;40422;45.892;4.738;2022-12-07T13:18:22;15.77;;;7.20;;
54515;SDS011;40422;45.892;4.738;2022-12-07T13:29:19;20.92;;;7.60;;
54515;SDS011;40422;45.892;4.738;2022-12-07T13:31:49;16.33;;;7.67;;
54515;SDS011;40422;45.892;4.738;2022-12-07T13:36:57;16.80;;;6.85;;
54515;SDS011;40422;45.892;4.738;2022-12-07T13:39:46;13.02;;;6.25;;
54515;SDS011;40422;45.892;4.738;2022-12-07T13:42:30;16.60;;;7.15;;
54515;SDS011;40422;45.892;4.738;2022-12-07T13:44:58;16.23;;;7.75;;
54515;SDS011;40422;45.892;4.738;2022-12-07T13:47:42;16.65;;;7.57;;
54515;SDS011;40422;45.892;4.738;2022-12-07T13:50:23;15.13;;;6.65;;
54515;SDS011;40422;45.892;4.738;2022-12-07T13:52:54;14.30;;;6.65;;
54515;SDS011;40422;45.892;4.738;2022-12-07T13:55:21;14.57;;;6.82;;
54515;SDS011;40422;45.892;4.738;2022-12-07T13:57:50;13.35;;;6.38;;
54515;SDS011;40422;45.892;4.738;2022-12-07T14:00:19;15.45;;;6.90;;
54515;SDS011;40422;45.892;4.738;2022-12-07T14:02:59;17.13;;;7.10;;
54515;SDS011;40422;45.892;4.738;2022-12-07T14:05:31;16.27;;;7.05;;
54515;SDS011;40422;45.892;4.738;2022-12-07T14:07:59;17.75;;;7.88;;
54515;SDS011;40422;45.892;4.738;2022-12-07T14:10:30;14.63;;;7.03;;
54515;SDS011;40422;45.892;4.738;2022-12-07T14:12:57;13.35;;;6.20;;
54515;SDS011;40422;45.892;4.738;2022-12-07T14:15:33;15.40;;;6.30;;
54515;SDS011;40422;45.892;4.738;2022-12-07T14:18:00;15.57;;;7.80;;
54515;SDS011;40422;45.892;4.738;2022-12-07T14:23:03;15.97;;;7.10;;
54515;SDS011;40422;45.892;4.738;2022-12-07T14:25:48;15.68;;;6.95;;
54515;SDS011;40422;45.892;4.738;2022-12-07T14:28:25;14.30;;;6.15;;
54515;SDS011;40422;45.892;4.738;2022-12-07T14:30:57;16.20;;;7.13;;
54515;SDS011;40422;45.892;4.738;2022-12-07T14:33:23;18.00;;;6.80;;
54515;SDS011;40422;45.892;4.738;2022-12-07T14:35:51;20.20;;;8.90;;
54515;SDS011;40422;45.892;4.738;2022-12-07T14:38:24;17.27;;;8.18;;
54515;SDS011;40422;45.892;4.738;2022-12-07T14:40:51;16.58;;;6.63;;
54515;SDS011;40422;45.892;4.738;2022-12-07T14:43:18;14.75;;;7.05;;
54515;SDS011;40422;45.892;4.738;2022-12-07T14:45:44;16.48;;;7.18;;
54515;SDS011;40422;45.892;4.738;2022-12-07T14:48:11;18.20;;;8.43;;
54515;SDS011;40422;45.892;4.738;2022-12-07T14:50:39;17.15;;;8.10;;
54515;SDS011;40422;45.892;4.738;2022-12-07T14:53:12;19.30;;;8.25;;
54515;SDS011;40422;45.892;4.738;2022-12-07T14:55:41;18.25;;;8.50;;
54515;SDS011;40422;45.892;4.738;2022-12-07T14:58:09;19.65;;;8.88;;
54515;SDS011;40422;45.892;4.738;2022-12-07T15:00:39;18.60;;;8.95;;
54515;SDS011;40422;45.892;4.738;2022-12-07T15:03:04;19.77;;;9.00;;
54515;SDS011;40422;45.892;4.738;2022-12-07T15:05:30;15.75;;;7.80;;
54515;SDS011;40422;45.892;4.738;2022-12-07T15:07:56;18.73;;;8.57;;
54515;SDS011;40422;45.892;4.738;2022-12-07T15:10:29;18.70;;;8.63;;
54515;SDS011;40422;45.892;4.738;2022-12-07T15:13:00;20.25;;;8.65;;
54515;SDS011;40422;45.892;4.738;2022-12-07T15:15:46;20.42;;;8.93;;
54515;SDS011;40422;45.892;4.738;2022-12-07T15:18:13;18.42;;;8.38;;
54515;SDS011;40422;45.892;4.738;2022-12-07T15:20:39;21.33;;;9.80;;
54515;SDS011;40422;45.892;4.738;2022-12-07T15:23:05;21.65;;;10.15;;
54515;SDS011;40422;45.892;4.738;2022-12-07T15:25:31;17.23;;;7.60;;
54515;SDS011;40422;45.892;4.738;2022-12-07T15:27:56;20.95;;;10.45;;
54515;SDS011;40422;45.892;4.738;2022-12-07T15:30:22;22.73;;;9.80;;
54515;SDS011;40422;45.892;4.738;2022-12-07T15:32:51;20.05;;;10.38;;
54515;SDS011;40422;45.892;4.738;2022-12-07T15:35:17;24.50;;;11.70;;
54515;SDS011;40422;45.892;4.738;2022-12-07T15:37:44;22.15;;;10.98;;
54515;SDS011;40422;45.892;4.738;2022-12-07T15:40:10;17.45;;;8.65;;
54515;SDS011;40422;45.892;4.738;2022-12-07T15:42:37;18.35;;;8.80;;
54515;SDS011;40422;45.892;4.738;2022-12-07T15:45:03;17.35;;;8.27;;
54515;SDS011;40422;45.892;4.738;2022-12-07T15:47:33;14.95;;;7.22;;
54515;SDS011;40422;45.892;4.738;2022-12-07T15:50:01;12.55;;;5.90;;
54515;SDS011;40422;45.892;4.738;2022-12-07T15:52:32;12.48;;;6.28;;
54515;SDS011;40422;45.892;4.738;2022-12-07T15:54:58;15.02;;;7.00;;
54515;SDS011;40422;45.892;4.738;2022-12-07T15:57:25;12.57;;;6.03;;
54515;SDS011;40422;45.892;4.738;2022-12-07T15:59:51;13.25;;;6.30;;
54515;SDS011;40422;45.892;4.738;2022-12-07T16:02:18;13.82;;;6.75;;
54515;SDS011;40422;45.892;4.738;2022-12-07T16:04:44;13.60;;;6.35;;
54515;SDS011;40422;45.892;4.738;2022-12-07T16:07:10;14.40;;;6.82;;
54515;SDS011;40422;45.892;4.738;2022-12-07T16:09:36;14.13;;;6.13;;
54515;SDS011;40422;45.892;4.738;2022-12-07T16:12:03;13.13;;;5.90;;
54515;SDS011;40422;45.892;4.738;2022-12-07T16:14:28;12.57;;;6.07;;
54515;SDS011;40422;45.892;4.738;2022-12-07T16:16:57;12.05;;;5.80;;
54515;SDS011;40422;45.892;4.738;2022-12-07T16:19:22;10.98;;;5.03;;
54515;SDS011;40422;45.892;4.738;2022-12-07T16:21:48;12.45;;;5.65;;
54515;SDS011;40422;45.892;4.738;2022-12-07T16:24:14;12.48;;;5.45;;
54515;SDS011;40422;45.892;4.738;2022-12-07T16:26:41;11.27;;;4.93;;
54515;SDS011;40422;45.892;4.738;2022-12-07T16:29:07;11.82;;;5.72;;
54515;SDS011;40422;45.892;4.738;2022-12-07T16:31:35;13.73;;;5.63;;
54515;SDS011;40422;45.892;4.738;2022-12-07T16:34:01;10.50;;;4.82;;
54515;SDS011;40422;45.892;4.738;2022-12-07T16:36:26;12.25;;;5.60;;
54515;SDS011;40422;45.892;4.738;2022-12-07T16:38:52;12.90;;;5.85;;
54515;SDS011;40422;45.892;4.738;2022-12-07T16:41:18;15.93;;;6.65;;
54515;SDS011;40422;45.892;4.738;2022-12-07T16:43:43;15.77;;;6.95;;
54515;SDS011;40422;45.892;4.738;2022-12-07T16:46:09;13.13;;;5.88;;
54515;SDS011;40422;45.892;4.738;2022-12-07T16:48:36;12.63;;;5.97;;
54515;SDS011;40422;45.892;4.738;2022-12-07T16:51:05;14.32;;;6.28;;
54515;SDS011;40422;45.892;4.738;2022-12-07T16:53:33;13.45;;;6.00;;
54515;SDS011;40422;45.892;4.738;2022-12-07T16:55:59;11.55;;;5.53;;
54515;SDS011;40422;45.892;4.738;2022-12-07T16:58:25;15.93;;;7.53;;
54515;SDS011;40422;45.892;4.738;2022-12-07T17:00:50;13.55;;;5.90;;
54515;SDS011;40422;45.892;4.738;2022-12-07T17:03:16;14.57;;;6.80;;
54515;SDS011;40422;45.892;4.738;2022-12-07T17:05:42;12.57;;;5.55;;
54515;SDS011;40422;45.892;4.738;2022-12-07T17:08:09;12.50;;;5.90;;
54515;SDS011;40422;45.892;4.738;2022-12-07T17:10:37;12.45;;;5.53;;
54515;SDS011;40422;45.892;4.738;2022-12-07T17:13:04;13.02;;;5.95;;
54515;SDS011;40422;45.892;4.738;2022-12-07T17:16:09;11.25;;;5.65;;
54515;SDS011;40422;45.892;4.738;2022-12-07T17:18:35;13.20;;;6.38;;
54515;SDS011;40422;45.892;4.738;2022-12-07T17:21:02;11.40;;;5.47;;
54515;SDS011;40422;45.892;4.738;2022-12-07T17:23:30;12.73;;;6.05;;
54515;SDS011;40422;45.892;4.738;2022-12-07T17:25:56;13.90;;;6.20;;
54515;SDS011;40422;45.892;4.738;2022-12-07T17:28:28;12.50;;;5.93;;
54515;SDS011;40422;45.892;4.738;2022-12-07T17:30:53;12.32;;;6.00;;
54515;SDS011;40422;45.892;4.738;2022-12-07T17:33:19;15.15;;;6.47;;
54515;SDS011;40422;45.892;4.738;2022-12-07T17:35:46;10.73;;;4.82;;
54515;SDS011;40422;45.892;4.738;2022-12-07T17:38:12;13.93;;;6.47;;
54515;SDS011;40422;45.892;4.738;2022-12-07T17:40:38;13.68;;;6.32;;
54515;SDS011;40422;45.892;4.738;2022-12-07T17:43:04;14.77;;;6.30;;
54515;SDS011;40422;45.892;4.738;2022-12-07T17:45:29;13.70;;;6.30;;
54515;SDS011;40422;45.892;4.738;2022-12-07T17:47:55;14.23;;;6.03;;
54515;SDS011;40422;45.892;4.738;2022-12-07T17:50:20;18.20;;;8.48;;
54515;SDS011;40422;45.892;4.738;2022-12-07T17:53:07;19.35;;;7.47;;
54515;SDS011;40422;45.892;4.738;2022-12-07T17:55:34;17.60;;;8.60;;
54515;SDS011;40422;45.892;4.738;2022-12-07T17:58:00;15.43;;;7.47;;
54515;SDS011;40422;45.892;4.738;2022-12-07T18:00:26;13.95;;;6.70;;
54515;SDS011;40422;45.892;4.738;2022-12-07T18:02:51;17.48;;;8.15;;
54515;SDS011;40422;45.892;4.738;2022-12-07T18:05:17;16.13;;;7.25;;
54515;SDS011;40422;45.892;4.738;2022-12-07T18:07:42;15.10;;;7.45;;
54515;SDS011;40422;45.892;4.738;2022-12-07T18:10:08;15.30;;;7.35;;
54515;SDS011;40422;45.892;4.738;2022-12-07T18:12:35;15.00;;;7.50;;
54515;SDS011;40422;45.892;4.738;2022-12-07T18:15:02;13.32;;;6.85;;
54515;SDS011;40422;45.892;4.738;2022-12-07T18:17:28;14.38;;;7.38;;
54515;SDS011;40422;45.892;4.738;2022-12-07T18:19:54;13.38;;;6.68;;
54515;SDS011;40422;45.892;4.738;2022-12-07T18:22:19;14.00;;;7.07;;
54515;SDS011;40422;45.892;4.738;2022-12-07T18:24:45;17.95;;;8.10;;
54515;SDS011;40422;45.892;4.738;2022-12-07T18:27:10;16.65;;;8.43;;
54515;SDS011;40422;45.892;4.738;2022-12-07T18:29:36;16.02;;;7.25;;
54515;SDS011;40422;45.892;4.738;2022-12-07T18:32:02;15.48;;;7.05;;
54515;SDS011;40422;45.892;4.738;2022-12-07T18:34:28;16.92;;;6.78;;
54515;SDS011;40422;45.892;4.738;2022-12-07T18:36:54;14.02;;;6.97;;
54515;SDS011;40422;45.892;4.738;2022-12-07T18:39:20;17.05;;;7.85;;
54515;SDS011;40422;45.892;4.738;2022-12-07T18:41:46;17.77;;;7.95;;
54515;SDS011;40422;45.892;4.738;2022-12-07T18:44:12;17.33;;;7.78;;
54515;SDS011;40422;45.892;4.738;2022-12-07T18:46:38;17.25;;;8.27;;
54515;SDS011;40422;45.892;4.738;2022-12-07T18:49:06;21.23;;;10.23;;
54515;SDS011;40422;45.892;4.738;2022-12-07T18:51:32;18.70;;;9.18;;
54515;SDS011;40422;45.892;4.738;2022-12-07T18:53:58;21.38;;;9.23;;
54515;SDS011;40422;45.892;4.738;2022-12-07T18:56:25;16.63;;;8.10;;
54515;SDS011;40422;45.892;4.738;2022-12-07T18:58:52;17.88;;;8.48;;
54515;SDS011;40422;45.892;4.738;2022-12-07T19:01:38;21.00;;;10.00;;
54515;SDS011;40422;45.892;4.738;2022-12-07T19:04:05;21.73;;;9.95;;
54515;SDS011;40422;45.892;4.738;2022-12-07T19:06:31;22.17;;;10.88;;
54515;SDS011;40422;45.892;4.738;2022-12-07T19:08:57;20.00;;;10.05;;
54515;SDS011;40422;45.892;4.738;2022-12-07T19:11:24;23.92;;;11.32;;
54515;SDS011;40422;45.892;4.738;2022-12-07T19:14:13;21.30;;;9.60;;
54515;SDS011;40422;45.892;4.738;2022-12-07T19:16:40;22.00;;;11.88;;
54515;SDS011;40422;45.892;4.738;2022-12-07T19:19:07;22.55;;;10.98;;
54515;SDS011;40422;45.892;4.738;2022-12-07T19:21:33;20.00;;;11.25;;
54515;SDS011;40422;45.892;4.738;2022-12-07T19:24:01;18.15;;;9.48;;
54515;SDS011;40422;45.892;4.738;2022-12-07T19:26:30;21.27;;;11.13;;
54515;SDS011;40422;45.892;4.738;2022-12-07T19:28:56;19.50;;;9.98;;
54515;SDS011;40422;45.892;4.738;2022-12-07T19:31:21;20.08;;;9.00;;
54515;SDS011;40422;45.892;4.738;2022-12-07T19:33:47;18.45;;;9.50;;
54515;SDS011;40422;45.892;4.738;2022-12-07T19:36:13;19.00;;;10.30;;
54515;SDS011;40422;45.892;4.738;2022-12-07T19:38:38;24.38;;;12.15;;
54515;SDS011;40422;45.892;4.738;2022-12-07T19:41:04;30.67;;;13.32;;
54515;SDS011;40422;45.892;4.738;2022-12-07T19:43:58;28.05;;;13.20;;
54515;SDS011;40422;45.892;4.738;2022-12-07T19:46:25;31.92;;;14.25;;
54515;SDS011;40422;45.892;4.738;2022-12-07T19:48:51;30.50;;;12.85;;
54515;SDS011;40422;45.892;4.738;2022-12-07T19:51:17;30.90;;;14.98;;
54515;SDS011;40422;45.892;4.738;2022-12-07T19:53:43;30.42;;;15.25;;
54515;SDS011;40422;45.892;4.738;2022-12-07T19:56:15;27.63;;;12.52;;
54515;SDS011;40422;45.892;4.738;2022-12-07T19:58:42;30.45;;;14.25;;
54515;SDS011;40422;45.892;4.738;2022-12-07T20:01:08;27.10;;;12.85;;
54515;SDS011;40422;45.892;4.738;2022-12-07T20:03:33;23.55;;;11.93;;
54515;SDS011;40422;45.892;4.738;2022-12-07T20:05:59;20.30;;;10.60;;
54515;SDS011;40422;45.892;4.738;2022-12-07T20:08:25;27.98;;;13.57;;
54515;SDS011;40422;45.892;4.738;2022-12-07T20:10:50;22.75;;;11.90;;
54515;SDS011;40422;45.892;4.738;2022-12-07T20:13:17;23.83;;;11.43;;
54515;SDS011;40422;45.892;4.738;2022-12-07T20:16:02;28.30;;;12.73;;
54515;SDS011;40422;45.892;4.738;2022-12-07T20:18:28;24.45;;;12.60;;
54515;SDS011;40422;45.892;4.738;2022-12-07T20:20:55;23.10;;;10.65;;
54515;SDS011;40422;45.892;4.738;2022-12-07T20:23:22;21.70;;;10.38;;
54515;SDS011;40422;45.892;4.738;2022-12-07T20:25:51;22.48;;;11.52;;
54515;SDS011;40422;45.892;4.738;2022-12-07T20:28:17;22.45;;;11.10;;
54515;SDS011;40422;45.892;4.738;2022-12-07T20:30:49;23.17;;;11.68;;
54515;SDS011;40422;45.892;4.738;2022-12-07T20:33:16;24.80;;;11.85;;